createdAt,value
2023-03-16T00:00:19.636Z,25.08
2023-03-16T00:03:06.724Z,27.05
2023-03-16T00:05:33.804Z,25.75
2023-03-16T00:08:01.038Z,30.33
2023-03-16T00:10:28.437Z,30.30
2023-03-16T00:12:56.905Z,33.25
2023-03-16T00:15:23.860Z,33.80
2023-03-16T00:17:51.015Z,33.88
2023-03-16T00:20:19.328Z,38.47
2023-03-16T00:22:46.582Z,39.58
2023-03-16T00:25:14.664Z,34.10
2023-03-16T00:27:41.931Z,36.40
2023-03-16T00:30:09.861Z,39.05
2023-03-16T00:32:38.380Z,37.58
2023-03-16T00:35:09.120Z,43.67
2023-03-16T00:37:39.247Z,43.60
2023-03-16T00:40:08.016Z,45.92
2023-03-16T00:42:35.329Z,47.83
2023-03-16T00:45:02.464Z,45.58
2023-03-16T00:47:33.400Z,49.03
2023-03-16T00:50:02.445Z,49.78
2023-03-16T00:52:30.068Z,52.75
2023-03-16T00:54:58.564Z,50.20
2023-03-16T00:57:30.003Z,49.55
2023-03-16T00:59:57.363Z,51.97
2023-03-16T01:02:25.059Z,54.03
2023-03-16T01:04:54.441Z,49.70
2023-03-16T01:07:22.781Z,44.90
2023-03-16T01:09:51.379Z,53.58
2023-03-16T01:12:20.239Z,42.25
2023-03-16T01:14:47.649Z,49.75
2023-03-16T01:17:17.523Z,45.17
2023-03-16T01:19:45.839Z,44.08
2023-03-16T01:22:14.476Z,42.28
2023-03-16T01:24:45.485Z,44.95
2023-03-16T01:27:14.739Z,40.17
2023-03-16T01:29:43.542Z,43.35
2023-03-16T01:32:12.127Z,38.20
2023-03-16T01:34:39.338Z,40.03
2023-03-16T01:37:07.401Z,40.00
2023-03-16T01:39:57.346Z,35.80
2023-03-16T01:42:24.822Z,37.88
2023-03-16T01:44:55.790Z,35.85
2023-03-16T01:47:27.799Z,37.63
2023-03-16T01:49:58.454Z,36.65
2023-03-16T01:52:37.477Z,36.42
2023-03-16T01:55:09.303Z,37.60
2023-03-16T01:57:44.911Z,37.00
2023-03-16T02:00:20.012Z,37.35
2023-03-16T02:03:16.713Z,38.35
2023-03-16T02:06:06.390Z,38.95
2023-03-16T02:08:38.802Z,41.28
2023-03-16T02:11:09.593Z,35.20
2023-03-16T02:14:02.554Z,37.53
2023-03-16T02:16:29.689Z,37.55
2023-03-16T02:18:57.227Z,41.42
2023-03-16T02:21:54.620Z,35.70
2023-03-16T02:24:22.520Z,35.28
2023-03-16T02:26:57.899Z,34.60
2023-03-16T02:30:04.702Z,31.98
2023-03-16T02:32:41.334Z,33.75
2023-03-16T02:35:10.668Z,28.70
2023-03-16T02:37:37.587Z,30.77
2023-03-16T02:40:29.603Z,31.33
2023-03-16T02:43:09.806Z,35.28
2023-03-16T02:45:57.699Z,33.30
2023-03-16T02:48:42.639Z,35.45
2023-03-16T02:51:11.355Z,38.10
2023-03-16T02:53:39.710Z,36.25
2023-03-16T02:56:09.606Z,37.42
2023-03-16T02:58:37.538Z,36.53
2023-03-16T03:01:10.049Z,36.17
2023-03-16T03:03:37.278Z,37.63
2023-03-16T03:06:05.782Z,33.17
2023-03-16T03:08:36.236Z,35.80
2023-03-16T03:11:04.016Z,33.97
2023-03-16T03:13:31.670Z,34.30
2023-03-16T03:16:00.064Z,30.75
2023-03-16T03:18:28.274Z,32.28
2023-03-16T03:20:55.760Z,31.10
2023-03-16T03:23:23.580Z,28.15
2023-03-16T03:25:50.979Z,30.30
2023-03-16T03:28:18.695Z,29.75
2023-03-16T03:30:46.294Z,26.10
2023-03-16T03:33:13.524Z,26.77
2023-03-16T03:35:42.082Z,32.67
2023-03-16T03:38:09.354Z,28.42
2023-03-16T03:40:37.031Z,30.77
2023-03-16T03:43:05.475Z,27.65
2023-03-16T03:45:37.531Z,29.17
2023-03-16T03:48:05.041Z,28.55
2023-03-16T03:50:32.263Z,25.02
2023-03-16T03:53:25.807Z,26.60
2023-03-16T03:56:26.444Z,27.33
2023-03-16T03:58:53.592Z,27.50
2023-03-16T04:01:33.271Z,27.05
2023-03-16T04:04:00.613Z,29.70
2023-03-16T04:06:28.640Z,28.10
2023-03-16T04:08:55.769Z,25.92
2023-03-16T04:11:26.778Z,26.55
2023-03-16T04:13:53.918Z,24.88
2023-03-16T04:16:22.143Z,26.02
2023-03-16T04:18:54.434Z,25.92
2023-03-16T04:21:24.093Z,25.75
2023-03-16T04:23:54.418Z,23.40
2023-03-16T04:26:25.610Z,26.20
2023-03-16T04:28:53.697Z,28.65
2023-03-16T04:31:21.481Z,23.73
2023-03-16T04:33:49.766Z,25.58
2023-03-16T04:36:17.789Z,28.15
2023-03-16T04:38:46.341Z,23.50
2023-03-16T04:41:13.629Z,26.92
2023-03-16T04:43:50.191Z,25.25
2023-03-16T04:46:20.984Z,27.80
2023-03-16T04:48:48.042Z,25.92
2023-03-16T04:51:15.404Z,23.10
2023-03-16T04:53:51.628Z,28.73
2023-03-16T04:56:25.047Z,24.48
2023-03-16T04:58:57.469Z,24.83
2023-03-16T05:01:28.306Z,22.80
2023-03-16T05:03:59.838Z,21.92
2023-03-16T05:06:28.958Z,22.95
2023-03-16T05:09:00.754Z,23.17
2023-03-16T05:11:30.112Z,22.05
2023-03-16T05:14:02.197Z,23.70
2023-03-16T05:16:33.781Z,22.60
2023-03-16T05:19:01.981Z,24.17
2023-03-16T05:21:34.181Z,26.10
2023-03-16T05:24:05.988Z,27.60
2023-03-16T05:26:33.869Z,21.40
2023-03-16T05:29:02.253Z,25.63
2023-03-16T05:31:34.834Z,23.83
2023-03-16T05:34:05.089Z,25.13
2023-03-16T05:36:32.367Z,24.95
2023-03-16T05:39:08.688Z,25.25
2023-03-16T05:41:40.477Z,31.35
2023-03-16T05:44:28.108Z,23.35
2023-03-16T05:47:14.027Z,29.23
2023-03-16T05:49:46.021Z,22.67
2023-03-16T05:52:25.426Z,27.10
2023-03-16T05:54:54.103Z,28.33
2023-03-16T05:57:21.366Z,30.80
2023-03-16T05:59:51.208Z,26.05
2023-03-16T06:02:19.333Z,26.75
2023-03-16T06:04:46.721Z,28.42
2023-03-16T06:07:14.034Z,25.27
2023-03-16T06:09:41.170Z,27.45
2023-03-16T06:12:14.106Z,29.35
2023-03-16T06:14:42.163Z,26.90
2023-03-16T06:17:10.396Z,26.73
2023-03-16T06:19:38.648Z,28.88
2023-03-16T06:22:06.138Z,30.17
2023-03-16T06:24:33.661Z,24.95
2023-03-16T06:27:01.227Z,29.30
2023-03-16T06:29:34.193Z,34.53
2023-03-16T06:32:03.241Z,31.50
2023-03-16T06:34:30.406Z,26.92
2023-03-16T06:36:57.969Z,32.50
2023-03-16T06:39:25.948Z,36.15
2023-03-16T06:41:53.472Z,34.22
2023-03-16T06:44:21.508Z,33.33
2023-03-16T06:47:06.679Z,37.45
2023-03-16T06:49:33.925Z,37.90
2023-03-16T06:52:03.741Z,37.00
2023-03-16T06:54:34.184Z,38.30
2023-03-16T06:57:02.134Z,36.55
2023-03-16T06:59:29.552Z,35.20
2023-03-16T07:01:58.004Z,43.20
2023-03-16T07:04:25.043Z,40.95
2023-03-16T07:06:53.024Z,35.47
2023-03-16T07:09:21.924Z,39.47
2023-03-16T07:11:50.000Z,37.13
2023-03-16T07:14:19.682Z,41.33
2023-03-16T07:16:49.445Z,42.22
2023-03-16T07:19:17.188Z,41.40
2023-03-16T07:21:47.434Z,38.97
2023-03-16T07:24:18.348Z,41.17
2023-03-16T07:26:46.513Z,39.60
2023-03-16T07:29:22.000Z,37.78
2023-03-16T07:31:53.469Z,39.65
2023-03-16T07:34:24.495Z,46.95
2023-03-16T07:36:57.961Z,39.53
2023-03-16T07:39:28.961Z,38.88
2023-03-16T07:42:04.806Z,41.03
2023-03-16T07:45:00.094Z,43.25
2023-03-16T07:47:28.507Z,40.70
2023-03-16T07:50:00.212Z,45.00
2023-03-16T07:52:28.898Z,39.28
2023-03-16T07:54:56.330Z,34.22
2023-03-16T07:57:24.584Z,37.20
2023-03-16T07:59:53.956Z,31.75
2023-03-16T08:02:22.122Z,36.10
2023-03-16T08:04:51.547Z,32.50
2023-03-16T08:07:19.936Z,37.00
2023-03-16T08:10:05.524Z,33.97
2023-03-16T08:12:41.811Z,31.65
2023-03-16T08:15:10.521Z,33.83
2023-03-16T08:17:41.522Z,31.90
2023-03-16T08:20:14.740Z,33.13
2023-03-16T08:22:46.266Z,29.57
2023-03-16T08:25:19.713Z,33.10
2023-03-16T08:27:55.289Z,30.13
2023-03-16T08:30:22.789Z,30.55
2023-03-16T08:33:03.260Z,28.63
2023-03-16T08:35:30.682Z,32.47
2023-03-16T08:38:09.061Z,29.90
2023-03-16T08:40:37.002Z,30.20
2023-03-16T08:43:04.637Z,29.67
2023-03-16T08:45:34.840Z,31.42
2023-03-16T08:48:05.613Z,29.88
2023-03-16T08:50:33.532Z,28.13
2023-03-16T08:53:02.159Z,27.00
2023-03-16T08:55:29.433Z,26.73
2023-03-16T08:57:56.980Z,23.83
2023-03-16T09:00:25.391Z,28.50
2023-03-16T09:02:53.218Z,26.60
2023-03-16T09:05:21.939Z,28.05
2023-03-16T09:07:49.839Z,30.35
2023-03-16T09:10:18.960Z,25.83
2023-03-16T09:12:47.199Z,29.23
2023-03-16T09:15:14.881Z,29.00
2023-03-16T09:17:45.100Z,26.23
2023-03-16T09:20:26.888Z,25.90
2023-03-16T09:22:58.760Z,28.20
2023-03-16T09:25:26.194Z,24.58
2023-03-16T09:27:53.882Z,24.23
2023-03-16T09:30:21.822Z,24.05
2023-03-16T09:32:50.762Z,24.92
2023-03-16T09:35:19.472Z,24.85
2023-03-16T09:38:05.213Z,25.65
2023-03-16T09:40:36.340Z,24.67
2023-03-16T09:43:38.646Z,25.27
2023-03-16T09:46:45.471Z,25.60
2023-03-16T09:49:20.004Z,24.17
2023-03-16T09:52:15.856Z,21.80
2023-03-16T09:55:07.686Z,21.15
2023-03-16T09:57:41.624Z,19.88
2023-03-16T10:00:25.305Z,17.48
2023-03-16T10:03:16.846Z,15.55
2023-03-16T10:05:48.159Z,14.95
2023-03-16T10:08:38.184Z,14.50
2023-03-16T10:11:24.408Z,11.45
2023-03-16T10:14:13.991Z,9.55
2023-03-16T10:17:19.199Z,10.50
2023-03-16T10:20:15.398Z,9.60
2023-03-16T10:22:46.681Z,10.00
2023-03-16T10:25:30.932Z,13.70
2023-03-16T10:27:58.872Z,11.98
2023-03-16T10:30:37.330Z,11.23
2023-03-16T10:33:25.735Z,9.13
2023-03-16T10:36:34.624Z,11.90
2023-03-16T10:39:08.427Z,9.98
2023-03-16T10:41:40.300Z,8.35
2023-03-16T10:44:29.908Z,9.88
2023-03-16T10:47:07.248Z,8.30
2023-03-16T10:49:42.012Z,10.05
2023-03-16T10:52:34.526Z,8.43
2023-03-16T10:55:40.749Z,13.32
2023-03-16T10:58:09.218Z,10.32
2023-03-16T11:00:43.264Z,12.27
2023-03-16T11:03:27.377Z,11.40
2023-03-16T11:06:08.873Z,9.70
2023-03-16T11:08:38.918Z,10.85
2023-03-16T11:11:33.765Z,10.15
2023-03-16T11:14:04.606Z,14.65
2023-03-16T11:16:43.789Z,12.60
2023-03-16T11:19:41.443Z,9.18
2023-03-16T11:22:23.172Z,12.38
2023-03-16T11:25:09.375Z,11.93
2023-03-16T11:28:25.983Z,10.00
2023-03-16T11:31:20.562Z,7.93
2023-03-16T11:33:54.258Z,10.10
2023-03-16T11:36:53.357Z,7.22
2023-03-16T11:39:52.901Z,10.85
2023-03-16T11:42:33.472Z,12.35
2023-03-16T11:45:19.816Z,12.02
2023-03-16T11:48:29.301Z,7.22
2023-03-16T11:51:09.714Z,7.47
2023-03-16T11:53:50.968Z,7.72
2023-03-16T11:56:42.809Z,8.63
2023-03-16T12:00:01.352Z,7.60
2023-03-16T12:02:53.523Z,6.68
2023-03-16T12:05:47.635Z,9.05
2023-03-16T12:09:04.421Z,6.78
2023-03-16T12:11:50.554Z,9.10
2023-03-16T12:14:28.243Z,12.40
2023-03-16T12:17:04.674Z,7.68
2023-03-16T12:19:57.128Z,10.02
2023-03-16T12:22:35.088Z,8.25
2023-03-16T12:25:20.909Z,9.88
2023-03-16T12:27:54.394Z,7.45
2023-03-16T12:30:59.147Z,6.95
2023-03-16T12:33:40.112Z,7.90
2023-03-16T12:36:30.718Z,7.13
2023-03-16T12:39:45.946Z,15.75
2023-03-16T12:42:41.580Z,14.02
2023-03-16T12:45:30.139Z,11.80
2023-03-16T12:48:24.953Z,11.45
2023-03-16T12:50:58.476Z,9.93
2023-03-16T12:53:51.806Z,9.77
2023-03-16T12:56:47.465Z,7.97
2023-03-16T12:59:21.978Z,10.90
2023-03-16T13:01:58.777Z,11.88
2023-03-16T13:04:43.008Z,13.25
2023-03-16T13:07:28.342Z,10.95
2023-03-16T13:10:02.671Z,12.73
2023-03-16T13:12:36.957Z,11.82
2023-03-16T13:15:25.480Z,17.13
2023-03-16T13:18:22.260Z,18.10
2023-03-16T13:21:01.729Z,19.50
2023-03-16T13:24:01.214Z,17.55
2023-03-16T13:26:53.551Z,14.10
2023-03-16T13:29:25.495Z,11.05
2023-03-16T13:31:57.812Z,11.55
2023-03-16T13:34:48.597Z,7.72
2023-03-16T13:37:21.020Z,8.82
2023-03-16T13:39:58.505Z,6.13
2023-03-16T13:42:32.520Z,7.38
2023-03-16T13:45:15.398Z,7.25
2023-03-16T13:47:48.491Z,7.68
2023-03-16T13:50:17.664Z,5.95
2023-03-16T13:53:04.117Z,6.60
2023-03-16T13:55:37.156Z,6.95
2023-03-16T13:58:35.278Z,8.07
2023-03-16T14:01:14.322Z,6.72
2023-03-16T14:03:42.336Z,8.05
2023-03-16T14:06:25.428Z,6.68
2023-03-16T14:09:01.137Z,9.85
2023-03-16T14:11:28.877Z,7.28
2023-03-16T14:14:00.393Z,8.82
2023-03-16T14:16:31.900Z,9.00
2023-03-16T14:19:08.636Z,6.97
2023-03-16T14:21:35.961Z,9.35
2023-03-16T14:24:07.702Z,8.13
2023-03-16T14:26:47.843Z,8.13
2023-03-16T14:29:30.521Z,9.98
2023-03-16T14:32:03.251Z,10.55
2023-03-16T14:34:41.925Z,11.30
2023-03-16T14:37:19.214Z,12.15
2023-03-16T14:40:01.579Z,9.60
2023-03-16T14:42:30.923Z,8.07
2023-03-16T14:45:00.849Z,7.50
2023-03-16T14:47:41.085Z,8.10
2023-03-16T14:50:16.818Z,7.63
2023-03-16T14:52:45.770Z,6.50
2023-03-16T14:55:17.683Z,6.93
2023-03-16T14:57:46.045Z,8.43
2023-03-16T15:00:16.838Z,8.68
2023-03-16T15:02:54.377Z,7.95
2023-03-16T15:05:36.709Z,8.45
2023-03-16T15:08:11.659Z,9.23
2023-03-16T15:10:39.242Z,7.32
2023-03-16T15:13:34.508Z,8.50
2023-03-16T15:16:05.633Z,9.27
2023-03-16T15:18:33.511Z,9.05
2023-03-16T15:21:02.799Z,7.32
2023-03-16T15:23:31.114Z,7.03
2023-03-16T15:26:00.232Z,8.63
2023-03-16T15:28:28.394Z,7.85
2023-03-16T15:30:59.282Z,10.23
2023-03-16T15:33:27.158Z,9.57
2023-03-16T15:35:59.244Z,11.88
2023-03-16T15:38:36.532Z,9.35
2023-03-16T15:41:04.032Z,9.27
2023-03-16T15:43:31.877Z,10.02
2023-03-16T15:46:03.992Z,12.00
2023-03-16T15:48:31.748Z,10.02
2023-03-16T15:51:08.424Z,12.07
2023-03-16T15:53:43.347Z,9.10
2023-03-16T15:56:16.505Z,11.35
2023-03-16T15:58:46.683Z,10.63
2023-03-16T16:01:26.926Z,9.85
2023-03-16T16:03:55.988Z,8.93
2023-03-16T16:06:24.284Z,9.48
2023-03-16T16:08:51.508Z,11.40
2023-03-16T16:11:27.074Z,8.15
2023-03-16T16:13:58.125Z,8.05
2023-03-16T16:16:31.961Z,8.20
2023-03-16T16:18:59.139Z,7.57
2023-03-16T16:21:30.871Z,8.10
2023-03-16T16:23:58.567Z,7.25
2023-03-16T16:26:50.065Z,6.68
2023-03-16T16:29:32.028Z,7.00
2023-03-16T16:32:00.090Z,9.52
2023-03-16T16:34:27.859Z,8.63
2023-03-16T16:36:57.271Z,11.32
2023-03-16T16:39:25.313Z,10.45
2023-03-16T16:41:56.323Z,10.45
2023-03-16T16:44:33.835Z,12.38
2023-03-16T16:47:03.563Z,12.85
2023-03-16T16:49:31.258Z,10.05
2023-03-16T16:51:59.485Z,10.98
2023-03-16T16:54:31.082Z,10.43
2023-03-16T16:57:00.719Z,8.60
2023-03-16T16:59:33.770Z,9.85
2023-03-16T17:02:12.884Z,10.40
2023-03-16T17:04:39.935Z,11.02
2023-03-16T17:07:12.489Z,10.77
2023-03-16T17:09:39.873Z,10.93
2023-03-16T17:12:21.722Z,12.77
2023-03-16T17:14:50.445Z,11.15
2023-03-16T17:17:18.690Z,12.20
2023-03-16T17:19:46.810Z,14.80
2023-03-16T17:22:26.510Z,10.43
2023-03-16T17:24:55.207Z,13.32
2023-03-16T17:27:30.206Z,11.93
2023-03-16T17:29:58.344Z,13.10
2023-03-16T17:32:26.033Z,12.90
2023-03-16T17:34:53.360Z,11.98
2023-03-16T17:37:22.155Z,15.18
2023-03-16T17:39:51.175Z,15.68
2023-03-16T17:42:20.359Z,14.13
2023-03-16T17:44:51.093Z,14.50
2023-03-16T17:47:26.420Z,15.15
2023-03-16T17:49:54.742Z,14.77
2023-03-16T17:52:25.689Z,15.40
2023-03-16T17:54:54.424Z,14.93
2023-03-16T17:57:33.453Z,13.98
2023-03-16T18:00:03.931Z,13.73
2023-03-16T18:02:55.639Z,14.98
2023-03-16T18:05:28.924Z,13.18
2023-03-16T18:08:01.692Z,13.10
2023-03-16T18:10:31.255Z,11.82
2023-03-16T18:13:07.539Z,14.30
2023-03-16T18:15:39.371Z,17.55
2023-03-16T18:18:07.880Z,14.10
2023-03-16T18:20:36.534Z,16.23
2023-03-16T18:23:24.482Z,13.55
2023-03-16T18:25:54.767Z,13.30
2023-03-16T18:28:23.132Z,12.73
2023-03-16T18:30:52.826Z,13.05
2023-03-16T18:33:27.424Z,11.18
2023-03-16T18:35:59.049Z,13.63
2023-03-16T18:38:35.190Z,11.80
2023-03-16T18:41:34.220Z,14.57
2023-03-16T18:44:16.734Z,14.05
2023-03-16T18:46:44.743Z,14.05
2023-03-16T18:49:33.499Z,15.00
2023-03-16T18:52:00.932Z,17.48
2023-03-16T18:54:35.340Z,15.05
2023-03-16T18:57:04.338Z,13.70
2023-03-16T18:59:31.988Z,17.27
2023-03-16T19:01:59.353Z,14.50
2023-03-16T19:04:30.669Z,17.20
2023-03-16T19:06:57.857Z,15.23
2023-03-16T19:09:29.750Z,16.52
2023-03-16T19:11:58.400Z,14.23
2023-03-16T19:14:34.704Z,15.32
2023-03-16T19:17:02.135Z,15.95
2023-03-16T19:19:29.315Z,18.05
2023-03-16T19:22:12.968Z,17.40
2023-03-16T19:24:54.077Z,17.92
2023-03-16T19:27:29.389Z,17.65
2023-03-16T19:29:57.065Z,18.48
2023-03-16T19:32:24.104Z,17.77
2023-03-16T19:34:51.384Z,17.17
2023-03-16T19:37:19.699Z,17.15
2023-03-16T19:39:47.152Z,17.42
2023-03-16T19:42:34.186Z,18.05
2023-03-16T19:45:02.629Z,19.48
2023-03-16T19:47:34.015Z,18.05
2023-03-16T19:50:01.775Z,20.70
2023-03-16T19:52:31.189Z,18.55
2023-03-16T19:54:58.675Z,24.35
2023-03-16T19:57:26.457Z,19.25
2023-03-16T19:59:57.418Z,22.85
2023-03-16T20:02:29.551Z,23.48
2023-03-16T20:04:57.311Z,21.67
2023-03-16T20:07:24.297Z,22.00
2023-03-16T20:09:51.735Z,24.08
2023-03-16T20:12:24.854Z,23.60
2023-03-16T20:14:53.456Z,24.63
2023-03-16T20:17:32.791Z,25.50
2023-03-16T20:20:00.072Z,26.40
2023-03-16T20:22:28.597Z,26.13
2023-03-16T20:24:57.859Z,29.40
2023-03-16T20:27:27.667Z,26.38
2023-03-16T20:29:55.647Z,27.23
2023-03-16T20:32:28.646Z,35.00
2023-03-16T20:34:56.338Z,26.63
2023-03-16T20:37:27.802Z,25.38
2023-03-16T20:39:58.892Z,33.72
2023-03-16T20:42:32.310Z,32.20
2023-03-16T20:45:00.855Z,33.38
2023-03-16T20:47:28.190Z,30.65
2023-03-16T20:49:59.398Z,33.50
2023-03-16T20:52:30.841Z,31.75
2023-03-16T20:54:58.661Z,33.67
2023-03-16T20:57:29.008Z,34.80
2023-03-16T20:59:56.569Z,34.22
2023-03-16T21:02:36.897Z,35.70
2023-03-16T21:05:07.769Z,34.83
2023-03-16T21:07:34.718Z,38.53
2023-03-16T21:10:02.008Z,40.08
2023-03-16T21:12:33.513Z,36.03
2023-03-16T21:15:08.436Z,35.15
2023-03-16T21:17:39.124Z,40.13
2023-03-16T21:20:20.539Z,35.47
2023-03-16T21:22:47.833Z,43.40
2023-03-16T21:25:22.805Z,40.30
2023-03-16T21:27:52.551Z,39.70
2023-03-16T21:30:34.075Z,39.60
2023-03-16T21:33:01.892Z,38.05
2023-03-16T21:35:35.793Z,41.15
2023-03-16T21:38:17.469Z,43.05
2023-03-16T21:40:46.640Z,41.20
2023-03-16T21:43:15.610Z,34.95
2023-03-16T21:45:43.862Z,36.22
2023-03-16T21:48:37.813Z,37.92
2023-03-16T21:51:43.089Z,37.60
2023-03-16T21:54:15.184Z,35.92
2023-03-16T21:56:43.277Z,42.10
2023-03-16T21:59:11.207Z,37.70
2023-03-16T22:01:54.602Z,33.90
2023-03-16T22:04:27.650Z,33.67
2023-03-16T22:06:55.209Z,36.20
2023-03-16T22:09:22.641Z,37.65
2023-03-16T22:11:50.758Z,32.30
2023-03-16T22:14:18.217Z,39.85
2023-03-16T22:16:45.834Z,36.20
2023-03-16T22:19:14.710Z,40.80
2023-03-16T22:21:45.188Z,44.22
2023-03-16T22:24:20.342Z,43.15
2023-03-16T22:26:48.993Z,41.40
2023-03-16T22:29:23.204Z,44.13
2023-03-16T22:32:19.947Z,44.80
2023-03-16T22:34:56.278Z,40.60
2023-03-16T22:37:29.054Z,40.13
2023-03-16T22:39:58.375Z,49.45
2023-03-16T22:42:38.033Z,47.88
2023-03-16T22:45:21.341Z,44.92
2023-03-16T22:47:48.830Z,43.08
2023-03-16T22:50:18.639Z,45.88
2023-03-16T22:52:50.277Z,41.53
2023-03-16T22:55:24.598Z,39.42
2023-03-16T22:58:02.214Z,40.88
2023-03-16T23:00:29.566Z,41.50
2023-03-16T23:02:57.530Z,41.22
2023-03-16T23:05:29.352Z,41.05
2023-03-16T23:08:02.390Z,40.85
2023-03-16T23:13:00.228Z,40.65
2023-03-16T23:15:30.563Z,40.55
2023-03-16T23:17:58.160Z,43.00
2023-03-16T23:20:31.749Z,42.13
2023-03-16T23:22:59.963Z,46.10
2023-03-16T23:25:26.848Z,44.60
2023-03-16T23:27:54.191Z,48.95
2023-03-16T23:30:25.738Z,44.97
2023-03-16T23:32:55.294Z,45.83
2023-03-16T23:35:25.490Z,47.63
2023-03-16T23:37:53.204Z,47.30
2023-03-16T23:40:22.843Z,49.03
2023-03-16T23:42:52.940Z,53.05
2023-03-16T23:45:27.448Z,48.70
2023-03-16T23:47:58.965Z,48.67
2023-03-16T23:50:31.502Z,51.13
2023-03-16T23:52:59.397Z,43.10
2023-03-16T23:55:26.580Z,49.95
2023-03-16T23:57:53.964Z,47.42
